createdAt,value
2019-04-05T00:05:08.660Z,32
2019-04-05T00:15:16.410Z,32
2019-04-05T00:25:19.885Z,32
2019-04-05T00:35:23.322Z,32
2019-04-05T00:45:29.063Z,32
2019-04-05T00:55:32.513Z,32
2019-04-05T01:05:35.960Z,31
2019-04-05T01:15:41.607Z,31
2019-04-05T01:25:45.061Z,31
2019-04-05T01:35:48.498Z,31
2019-04-05T01:45:54.560Z,31
2019-04-05T01:55:57.994Z,31
2019-04-05T02:06:01.397Z,31
2019-04-05T02:16:07.221Z,31
2019-04-05T02:26:10.638Z,31
2019-04-05T02:36:14.152Z,31
2019-04-05T02:46:24.668Z,31
2019-04-05T02:56:28.108Z,31
2019-04-05T03:06:32.561Z,31
2019-04-05T03:16:42.322Z,31
2019-04-05T03:26:45.807Z,31
2019-04-05T03:36:52.431Z,31
2019-04-05T03:46:58.344Z,31
2019-04-05T03:57:01.812Z,31
2019-04-05T04:07:05.290Z,32
2019-04-05T04:17:13.841Z,32
2019-04-05T04:27:17.351Z,32
2019-04-05T04:37:20.804Z,32
2019-04-05T04:47:27.720Z,32
2019-04-05T04:57:31.169Z,32
2019-04-05T05:07:34.605Z,32
2019-04-05T05:17:39.363Z,32
2019-04-05T05:27:42.813Z,33
2019-04-05T05:37:46.252Z,33
2019-04-05T05:47:52.777Z,33
2019-04-05T05:57:59.009Z,33
2019-04-05T06:08:02.412Z,33
2019-04-05T06:18:05.838Z,34
2019-04-05T06:28:09.249Z,34
2019-04-05T06:38:12.663Z,32
2019-04-05T06:48:20.117Z,33
2019-04-05T06:58:29.715Z,33
2019-04-05T07:08:33.215Z,33
2019-04-05T07:18:36.791Z,33
2019-04-05T07:28:40.267Z,33
2019-04-05T07:38:43.678Z,33
2019-04-05T07:48:47.121Z,37
2019-04-05T07:58:50.573Z,34
2019-04-05T08:08:53.980Z,32
2019-04-05T08:18:58.644Z,33
2019-04-05T08:29:02.084Z,32
2019-04-05T08:39:06.533Z,32
2019-04-05T08:49:12.139Z,33
2019-04-05T08:59:15.652Z,32
2019-04-05T09:09:19.089Z,32
2019-04-05T09:19:24.383Z,32
2019-04-05T09:29:27.844Z,31
2019-04-05T09:39:31.267Z,32
2019-04-05T09:49:37.560Z,31
2019-04-05T09:59:40.989Z,32
2019-04-05T10:09:44.447Z,31
2019-04-05T10:19:50.853Z,31
2019-04-05T10:29:54.344Z,32
2019-04-05T10:39:57.758Z,32
2019-04-05T10:50:04.007Z,31
2019-04-05T11:00:07.434Z,31
2019-04-05T11:10:10.890Z,31
2019-04-05T11:20:22.651Z,31
2019-04-05T11:30:27.279Z,31
2019-04-05T11:40:30.676Z,31
2019-04-05T11:50:35.366Z,32
2019-04-05T12:00:38.810Z,31
2019-04-05T12:10:42.252Z,31
2019-04-05T12:21:01.185Z,31
2019-04-05T12:31:09.023Z,31
2019-04-05T12:41:12.455Z,31
2019-04-05T12:51:16.616Z,31
2019-04-05T13:01:20.048Z,31
2019-04-05T13:11:27.212Z,31
2019-04-05T13:21:33.417Z,31
2019-04-05T13:31:36.856Z,31
2019-04-05T13:41:40.290Z,31
2019-04-05T13:51:43.721Z,31
2019-04-05T14:01:51.733Z,31
2019-04-05T14:11:55.174Z,31
2019-04-05T14:22:09.486Z,31
2019-04-05T14:32:22.300Z,31
2019-04-05T14:42:25.768Z,31
2019-04-05T14:52:32.017Z,31
2019-04-05T15:02:35.458Z,31
2019-04-05T15:12:38.912Z,31
2019-04-05T15:22:42.548Z,31
2019-04-05T15:32:45.982Z,31
2019-04-05T15:42:49.448Z,31
2019-04-05T15:52:52.876Z,31
2019-04-05T16:02:56.295Z,30
2019-04-05T16:12:59.721Z,31
2019-04-05T16:23:03.174Z,31
2019-04-05T16:33:06.611Z,31
2019-04-05T16:43:10.076Z,32
2019-04-05T16:53:13.519Z,31
2019-04-05T17:03:16.956Z,32
2019-04-05T17:13:20.392Z,32
2019-04-05T17:23:23.834Z,32
2019-04-05T17:33:27.287Z,31
2019-04-05T17:43:31.712Z,33
2019-04-05T17:53:35.160Z,33
2019-04-05T18:03:38.610Z,34
2019-04-05T18:13:42.059Z,33
2019-04-05T18:23:45.497Z,35
2019-04-05T18:33:48.957Z,33
2019-04-05T18:43:52.401Z,34
2019-04-05T18:53:55.835Z,34
2019-04-05T19:03:59.284Z,34
2019-04-05T19:14:02.818Z,35
2019-04-05T19:24:06.278Z,34
2019-04-05T19:58:16.633Z,36
2019-04-05T20:08:20.061Z,34
2019-04-05T20:18:23.557Z,34
2019-04-05T20:28:27.008Z,33
2019-04-05T20:38:30.461Z,34
2019-04-05T20:48:33.906Z,34
2019-04-05T20:58:37.355Z,35
2019-04-05T21:08:40.793Z,33
2019-04-05T21:18:44.227Z,34
2019-04-05T21:28:47.673Z,33
2019-04-05T21:38:51.138Z,32
2019-04-05T21:48:54.601Z,31
2019-04-05T21:58:58.035Z,32
2019-04-05T22:09:01.475Z,33
2019-04-05T22:19:04.920Z,32
2019-04-05T22:29:08.363Z,32
2019-04-05T22:39:11.791Z,31
2019-04-05T22:49:15.241Z,30
2019-04-05T22:59:18.712Z,32
2019-04-05T23:09:22.139Z,31
2019-04-05T23:19:25.611Z,31
2019-04-05T23:29:29.074Z,32
2019-04-05T23:39:32.501Z,32
2019-04-05T23:49:35.971Z,34
2019-04-05T23:59:39.394Z,31
